CBNK1: Chikaskia River At Corbin

Data processed at Sat Jan 06 2018 23:04


All information presented herein is the property of the government of the United States of America and may be revised or deleted at any time without prior notice.
Dissemination of this information without the expressed written consent of the Public Affairs Office, Tulsa District U.S. Army Corps of Engineers is strictly prohibited.
These data are gathered electronically and, as presented, have not undergone any form of quality control. These data are not guaranteed to be valid or correct.
Go to home page.
Go to station list.

Downstream station:


Previous Day
Next Day
Current Day
    
SHEF ID:       CBNK1     CHIKASKIA R NR CORBIN, KS
STATION TYPE:  

               PRECIP     STAGE  RIV-FLOW  BAT-LOAD
                   in        ft       cfs      volt
              Ccp-Rev   Ccp-Rev   Ccp-Rev   Ccp-Rev
(US/Central)
01/04 00:00      0.00      2.38       151     12.65
01/04 01:00      0.00      2.39       157     12.57
01/04 02:00      0.00      2.38       151     12.57
01/04 03:00      0.00      2.38       151     12.57
01/04 04:00      0.00      2.38       151     12.57
01/04 05:00      0.00      2.37       146     12.65
01/04 06:00      0.00      2.36       141     12.65
01/04 07:00      0.00      2.35       136     12.65
01/04 08:00      0.00      2.34       131     12.57
01/04 09:00      0.00      2.33       127     12.57
01/04 10:00      0.00      2.33       127     12.97
01/04 11:00      0.00      2.35       136     13.37
01/04 12:00      0.00      2.37       146     13.37
01/04 13:00      0.00      2.37       146     13.37
01/04 14:00      0.00      2.39       157     13.37
01/04 15:00      0.00      2.40       163     13.37
01/04 16:00      0.00      2.41       169     13.53
01/04 17:00      0.00      2.42       173     13.68
01/04 18:00      0.00      2.41       169     13.13
01/04 19:00      0.00      2.39       157     12.97
01/04 20:00      0.00      2.39       157     12.81
01/04 21:00      0.00      2.39       157     12.73
01/04 22:00      0.00      2.40       163     12.73
01/04 23:00      0.00      2.40       163     12.73